La Suprema — IBIL — position and weather

sailwx.info

Track history (hours):
 
Tides and Currents Weather Stations Pressure Air Temp Water Temp Dewpoint Dewpoint Depression Visibility Wind Speed Wind Dir Waves Ship Positions

La Suprema

Last reported at 2017-Sep-29 00:39 UTC. Time now 2017-Oct-22 06:49 UTC.
Position N 35°57' W 005°35'.
Warning: this ship's position is 23 days out of date.

Length 211 m; draft 7.1 m.

Type: Passenger vessel. MMSI: 247083700.

Date/timePositionNaut miles runAvg speedWind from/ knotsBaromVisibWave heightAir tempDewpointWater temp
2017-Sep-29 00:39N 35°57' W 005°35'320.9
2017-Sep-29 00:30N 35°59' W 005°32'1121.9
2017-Sep-29 00:01N 36°02' W 005°19'23121.2
2017-Sep-28 13:05N 37°23' W 000°49'223.0
2017-Sep-28 12:59N 37°24' W 000°46'1322.9
2017-Sep-28 12:25N 37°33' W 000°34'922.8
2017-Sep-28 12:00N 37°41' W 000°29'13322.5
2017-Sep-28 06:04N 39°24' E 001°20'122.1
2017-Sep-28 06:00N 39°25' E 001°22'1322.4
2017-Sep-28 05:26N 39°33' E 001°34'1122.7
2017-Sep-28 04:57N 39°41' E 001°45'1022.7
2017-Sep-28 04:31N 39°47' E 001°54'1122.6
2017-Sep-28 04:00N 39°55' E 002°06'1122.6
2017-Sep-28 03:30N 40°02' E 002°17'1222.9
2017-Sep-28 03:00N 40°10' E 002°28'1123.0
2017-Sep-28 02:31N 40°17' E 002°39'1122.8
2017-Sep-28 02:00N 40°25' E 002°51'1122.7
2017-Sep-28 01:30N 40°32' E 003°02'1122.7
2017-Sep-28 01:00N 40°40' E 003°13'1223.1
2017-Sep-28 00:28N 40°48' E 003°26'11522.9
2017-Sep-27 19:27N 42°02' E 005°22'2622.9
2017-Sep-27 18:20N 42°19' E 005°48'2622.5
2017-Sep-27 17:11N 42°36' E 006°15'422.6
2017-Sep-27 17:00N 42°39' E 006°19'5823.1
2017-Sep-27 14:28N 43°17' E 007°19'3523.2
2017-Sep-27 12:59N 43°40' E 007°55'2523.4
2017-Sep-27 11:55N 43°56' E 008°20'1023.3
2017-Sep-27 11:30N 44°03' E 008°30'1223.2
2017-Sep-27 11:01N 44°11' E 008°42'1223.4
2017-Sep-27 10:31N 44°18' E 008°55'612.9
2017-Sep-27 10:00N 44°25' E 008°55'0 0.2
2017-Sep-27 09:27N 44°25' E 008°55'0 0.0
2017-Sep-27 08:57N 44°25' E 008°55'0 0.0
2017-Sep-27 08:27N 44°25' E 008°55'0 0.0
2017-Sep-27 07:59N 44°25' E 008°55'0 0.0
2017-Sep-27 07:29N 44°25' E 008°55'0 0.0
2017-Sep-27 06:56N 44°25' E 008°55'0 0.0
2017-Sep-27 06:26N 44°25' E 008°55'0 0.0
2017-Sep-27 05:49N 44°25' E 008°55'0 0.0
2017-Sep-27 05:28N 44°25' E 008°55'0 0.0
2017-Sep-27 04:58N 44°25' E 008°55'0 0.0
2017-Sep-27 04:25N 44°25' E 008°55'0 0.0
2017-Sep-27 03:55N 44°25' E 008°55'0 0.0
2017-Sep-27 03:30N 44°25' E 008°55'0 0.0
2017-Sep-27 03:00N 44°25' E 008°55'0 0.0
2017-Sep-27 02:30N 44°25' E 008°55'0 0.0
2017-Sep-27 02:00N 44°25' E 008°55'0 0.0
2017-Sep-27 01:30N 44°25' E 008°55'0 0.0
2017-Sep-27 00:59N 44°25' E 008°55'0 0.0
2017-Sep-27 00:29N 44°25' E 008°55'0 0.0
2017-Sep-26 23:56N 44°25' E 008°55'0 0.0
2017-Sep-26 23:29N 44°25' E 008°55'0 0.0
2017-Sep-26 22:58N 44°25' E 008°55'0 0.0
2017-Sep-26 22:28N 44°25' E 008°55'0 0.0
2017-Sep-26 21:58N 44°25' E 008°55'0 0.0
2017-Sep-26 21:28N 44°25' E 008°55'0 0.0
2017-Sep-26 20:58N 44°25' E 008°55'0 0.0
2017-Sep-26 20:30N 44°25' E 008°55'0 0.0
2017-Sep-26 20:00N 44°25' E 008°55'0 0.0
2017-Sep-26 19:27N 44°25' E 008°55'0 0.0
2017-Sep-26 18:57N 44°25' E 008°55'0 0.0
2017-Sep-26 18:21N 44°25' E 008°55'0 0.0
2017-Sep-26 17:59N 44°25' E 008°55'0 0.0
2017-Sep-26 17:29N 44°25' E 008°55'0 0.0
2017-Sep-26 17:00N 44°25' E 008°55'0 0.8
2017-Sep-26 16:30N 44°24' E 008°55'713.1
2017-Sep-26 16:00N 44°19' E 008°60'1325.9
2017-Sep-26 15:30N 44°07' E 009°06'1326.7
2017-Sep-26 15:01N 43°54' E 009°13'1326.7
2017-Sep-26 14:30N 43°42' E 009°19'1326.5
2017-Sep-26 14:01N 43°29' E 009°25'1326.4
2017-Sep-26 13:30N 43°17' E 009°31'32125.9
2017-Sep-26 01:07N 38°38' E 013°04'426.2
2017-Sep-26 00:58N 38°35' E 013°06'1226.5
2017-Sep-26 00:31N 38°25' E 013°15'1326.6
2017-Sep-26 00:01N 38°14' E 013°24'612.2
2017-Sep-25 23:30N 38°08' E 013°22'0 0.2
2017-Sep-25 23:00N 38°08' E 013°22'0 0.0
2017-Sep-25 22:29N 38°08' E 013°22'0 0.0
2017-Sep-25 21:59N 38°08' E 013°22'0 0.0
2017-Sep-25 21:29N 38°08' E 013°22'0 0.0
2017-Sep-25 20:59N 38°08' E 013°22'0 0.0
2017-Sep-25 20:29N 38°08' E 013°22'0 0.0
2017-Sep-25 19:58N 38°08' E 013°22'0 0.0
2017-Sep-25 19:28N 38°08' E 013°22'0 0.0
2017-Sep-25 19:01N 38°08' E 013°22'2 4.1
2017-Sep-25 18:30N 38°09' E 013°24'1020.0
2017-Sep-25 18:00N 38°16' E 013°16'12815.3
2017-Sep-25 09:38N 36°11' E 013°50'425.0
2017-Sep-25 09:30N 36°09' E 013°53'1224.8
2017-Sep-25 09:00N 36°00' E 014°04'1324.8
2017-Sep-25 08:30N 35°51' E 014°15'15 2.9
2017-Sep-25 03:14N 35°46' E 014°32'522.8
2017-Sep-25 03:00N 35°45' E 014°26'1122.0
2017-Sep-25 02:30N 35°52' E 014°15'1123.0
2017-Sep-25 02:00N 35°59' E 014°04'1222.9
2017-Sep-25 01:30N 36°08' E 013°54'13615.9
2017-Sep-24 16:56N 38°15' E 012°52'1023.0
2017-Sep-24 16:30N 38°16' E 013°05'1223.1
2017-Sep-24 16:01N 38°17' E 013°20'1019.5
2017-Sep-24 15:30N 38°08' E 013°24'2 3.5
2017-Sep-24 15:00N 38°08' E 013°22'0 0.0
2017-Sep-24 14:29N 38°08' E 013°22'0 0.0
2017-Sep-24 13:59N 38°08' E 013°22'0 0.0
2017-Sep-24 13:29N 38°08' E 013°22'0 0.0
2017-Sep-24 13:00N 38°08' E 013°22'2 3.7
2017-Sep-24 12:30N 38°09' E 013°24'1223.7
2017-Sep-24 12:01N 38°20' E 013°19'1326.0
2017-Sep-24 11:31N 38°31' E 013°10'32525.6
2017-Sep-23 22:51N 43°10' E 009°32'926.6
2017-Sep-23 22:31N 43°19' E 009°28'1326.4
2017-Sep-23 22:01N 43°31' E 009°22'1326.1
2017-Sep-23 21:31N 43°44' E 009°16'1326.0
2017-Sep-23 21:01N 43°56' E 009°10'1325.9
2017-Sep-23 20:31N 44°09' E 009°05'1325.7
2017-Sep-23 20:00N 44°20' E 008°58'80 1.8
2017-Sep-22 00:20N 43°05' E 009°34'926.9
2017-Sep-21 23:59N 43°14' E 009°31'1327.1
2017-Sep-21 23:30N 43°27' E 009°25'1326.4
2017-Sep-21 23:00N 43°39' E 009°19'1326.3
2017-Sep-21 22:30N 43°51' E 009°12'1326.3
2017-Sep-21 22:01N 44°03' E 009°05'1326.4
2017-Sep-21 21:31N 44°16' E 009°00'917.8
2017-Sep-21 21:00N 44°24' E 008°55'0 0.6
2017-Sep-21 20:29N 44°25' E 008°55'0 0.0
2017-Sep-21 19:59N 44°25' E 008°55'0 0.0
2017-Sep-21 19:28N 44°25' E 008°55'0 0.0
2017-Sep-21 18:58N 44°25' E 008°55'0 0.0
2017-Sep-21 18:25N 44°25' E 008°55'0 0.0
2017-Sep-21 18:00N 44°25' E 008°55'0 0.0
2017-Sep-21 17:30N 44°25' E 008°55'0 0.0
2017-Sep-21 17:00N 44°25' E 008°55'0 0.0
2017-Sep-21 16:31N 44°25' E 008°55'2 4.6
2017-Sep-21 16:00N 44°23' E 008°57'1021.1
2017-Sep-21 15:31N 44°13' E 009°02'1122.9
2017-Sep-21 15:01N 44°03' E 009°08'1123.0
2017-Sep-21 14:31N 43°52' E 009°14'1122.9
2017-Sep-21 14:01N 43°41' E 009°21'1122.7
2017-Sep-21 13:31N 43°31' E 009°25'1322.8
2017-Sep-21 12:56N 43°18' E 009°31'32325.8
2017-Sep-21 00:23N 38°38' E 013°04'1025.7
2017-Sep-21 00:00N 38°30' E 013°11'1326.0
2017-Sep-20 23:30N 38°19' E 013°20'1123.0
2017-Sep-20 23:01N 38°08' E 013°25'2 4.1
2017-Sep-20 22:29N 38°08' E 013°22'0 0.0
2017-Sep-20 21:59N 38°08' E 013°22'0 0.0
2017-Sep-20 21:29N 38°08' E 013°22'0 0.0
2017-Sep-20 20:58N 38°08' E 013°22'0 0.0
2017-Sep-20 20:28N 38°08' E 013°22'0 0.0
2017-Sep-20 19:58N 38°08' E 013°22'0 0.0
2017-Sep-20 19:28N 38°08' E 013°22'0 0.0
2017-Sep-20 19:00N 38°08' E 013°22'0 0.0
2017-Sep-20 18:30N 38°08' E 013°22'0 0.0
2017-Sep-20 18:00N 38°08' E 013°22'0 0.0
2017-Sep-20 17:30N 38°08' E 013°22'0 0.4
2017-Sep-20 17:01N 38°08' E 013°22'611.2
2017-Sep-20 16:30N 38°13' E 013°24'1122.1
2017-Sep-20 16:01N 38°22' E 013°17'29722.7
2017-Sep-20 02:57N 42°35' E 009°51'3126.1
2017-Sep-20 01:46N 43°03' E 009°35'725.8
2017-Sep-20 01:30N 43°10' E 009°33'1325.8
2017-Sep-20 01:01N 43°22' E 009°27'1325.7
2017-Sep-20 00:31N 43°34' E 009°21'1425.7
2017-Sep-19 23:57N 43°47' E 009°14'1425.7
2017-Sep-19 23:26N 43°60' E 009°08'1125.9
2017-Sep-19 23:01N 44°10' E 009°03'1326.0
2017-Sep-19 22:31N 44°22' E 008°57'3 4.8
2017-Sep-19 21:59N 44°25' E 008°55'0 0.0
2017-Sep-19 21:28N 44°25' E 008°55'0 0.0
2017-Sep-19 20:58N 44°25' E 008°55'0 0.0
2017-Sep-19 20:28N 44°25' E 008°55'0 0.0
2017-Sep-19 19:58N 44°25' E 008°55'0 0.0
2017-Sep-19 19:31N 44°25' E 008°55'0 0.0
2017-Sep-19 19:00N 44°25' E 008°55'0 0.0
2017-Sep-19 18:27N 44°25' E 008°55'0 0.0
2017-Sep-19 17:54N 44°25' E 008°55'0 0.0
2017-Sep-19 17:27N 44°25' E 008°55'0 0.3
2017-Sep-19 17:00N 44°24' E 008°55'713.2
2017-Sep-19 16:30N 44°19' E 008°60'1122.3
2017-Sep-19 16:00N 44°08' E 009°05'1122.2
2017-Sep-19 15:30N 43°58' E 009°10'1121.4
2017-Sep-19 15:00N 43°48' E 009°16'1224.4
2017-Sep-19 14:30N 43°37' E 009°22'1325.8
2017-Sep-19 14:00N 43°24' E 009°28'32925.6
2017-Sep-19 01:12N 38°39' E 013°03'526.0
2017-Sep-19 01:00N 38°34' E 013°07'  
Track history (hours):
 
Tides and Currents Weather Stations Pressure Air Temp Water Temp Dewpoint Dewpoint Depression Visibility Wind Speed Wind Dir Waves Ship Positions

La Suprema

Last reported at 2017-Sep-29 00:39 UTC. Time now 2017-Oct-22 06:49 UTC.
Position N 35°57' W 005°35'.
Warning: this ship's position is 23 days out of date.

Length 211 m; draft 7.1 m.

Type: Passenger vessel. MMSI: 247083700.

Date/timePositionNaut miles runAvg speedWind from/ knotsBaromVisibWave heightAir tempDewpointWater temp
2017-Sep-29 00:39N 35°57' W 005°35'320.9
2017-Sep-29 00:30N 35°59' W 005°32'1121.9
2017-Sep-29 00:01N 36°02' W 005°19'23121.2
2017-Sep-28 13:05N 37°23' W 000°49'223.0
2017-Sep-28 12:59N 37°24' W 000°46'1322.9
2017-Sep-28 12:25N 37°33' W 000°34'922.8
2017-Sep-28 12:00N 37°41' W 000°29'13322.5
2017-Sep-28 06:04N 39°24' E 001°20'122.1
2017-Sep-28 06:00N 39°25' E 001°22'1322.4
2017-Sep-28 05:26N 39°33' E 001°34'1122.7
2017-Sep-28 04:57N 39°41' E 001°45'1022.7
2017-Sep-28 04:31N 39°47' E 001°54'1122.6
2017-Sep-28 04:00N 39°55' E 002°06'1122.6
2017-Sep-28 03:30N 40°02' E 002°17'1222.9
2017-Sep-28 03:00N 40°10' E 002°28'1123.0
2017-Sep-28 02:31N 40°17' E 002°39'1122.8
2017-Sep-28 02:00N 40°25' E 002°51'1122.7
2017-Sep-28 01:30N 40°32' E 003°02'1122.7
2017-Sep-28 01:00N 40°40' E 003°13'1223.1
2017-Sep-28 00:28N 40°48' E 003°26'11522.9
2017-Sep-27 19:27N 42°02' E 005°22'2622.9
2017-Sep-27 18:20N 42°19' E 005°48'2622.5
2017-Sep-27 17:11N 42°36' E 006°15'422.6
2017-Sep-27 17:00N 42°39' E 006°19'5823.1
2017-Sep-27 14:28N 43°17' E 007°19'3523.2
2017-Sep-27 12:59N 43°40' E 007°55'2523.4
2017-Sep-27 11:55N 43°56' E 008°20'1023.3
2017-Sep-27 11:30N 44°03' E 008°30'1223.2
2017-Sep-27 11:01N 44°11' E 008°42'1223.4
2017-Sep-27 10:31N 44°18' E 008°55'612.9
2017-Sep-27 10:00N 44°25' E 008°55'0 0.2
2017-Sep-27 09:27N 44°25' E 008°55'0 0.0
2017-Sep-27 08:57N 44°25' E 008°55'0 0.0
2017-Sep-27 08:27N 44°25' E 008°55'0 0.0
2017-Sep-27 07:59N 44°25' E 008°55'0 0.0
2017-Sep-27 07:29N 44°25' E 008°55'0 0.0
2017-Sep-27 06:56N 44°25' E 008°55'0 0.0
2017-Sep-27 06:26N 44°25' E 008°55'0 0.0
2017-Sep-27 05:49N 44°25' E 008°55'0 0.0
2017-Sep-27 05:28N 44°25' E 008°55'0 0.0
2017-Sep-27 04:58N 44°25' E 008°55'0 0.0
2017-Sep-27 04:25N 44°25' E 008°55'0 0.0
2017-Sep-27 03:55N 44°25' E 008°55'0 0.0
2017-Sep-27 03:30N 44°25' E 008°55'0 0.0
2017-Sep-27 03:00N 44°25' E 008°55'0 0.0
2017-Sep-27 02:30N 44°25' E 008°55'0 0.0
2017-Sep-27 02:00N 44°25' E 008°55'0 0.0
2017-Sep-27 01:30N 44°25' E 008°55'0 0.0
2017-Sep-27 00:59N 44°25' E 008°55'0 0.0
2017-Sep-27 00:29N 44°25' E 008°55'0 0.0
2017-Sep-26 23:56N 44°25' E 008°55'0 0.0
2017-Sep-26 23:29N 44°25' E 008°55'0 0.0
2017-Sep-26 22:58N 44°25' E 008°55'0 0.0
2017-Sep-26 22:28N 44°25' E 008°55'0 0.0
2017-Sep-26 21:58N 44°25' E 008°55'0 0.0
2017-Sep-26 21:28N 44°25' E 008°55'0 0.0
2017-Sep-26 20:58N 44°25' E 008°55'0 0.0
2017-Sep-26 20:30N 44°25' E 008°55'0 0.0
2017-Sep-26 20:00N 44°25' E 008°55'0 0.0
2017-Sep-26 19:27N 44°25' E 008°55'0 0.0
2017-Sep-26 18:57N 44°25' E 008°55'0 0.0
2017-Sep-26 18:21N 44°25' E 008°55'0 0.0
2017-Sep-26 17:59N 44°25' E 008°55'0 0.0
2017-Sep-26 17:29N 44°25' E 008°55'0 0.0
2017-Sep-26 17:00N 44°25' E 008°55'0 0.8
2017-Sep-26 16:30N 44°24' E 008°55'713.1
2017-Sep-26 16:00N 44°19' E 008°60'1325.9
2017-Sep-26 15:30N 44°07' E 009°06'1326.7
2017-Sep-26 15:01N 43°54' E 009°13'1326.7
2017-Sep-26 14:30N 43°42' E 009°19'1326.5
2017-Sep-26 14:01N 43°29' E 009°25'1326.4
2017-Sep-26 13:30N 43°17' E 009°31'32125.9
2017-Sep-26 01:07N 38°38' E 013°04'426.2
2017-Sep-26 00:58N 38°35' E 013°06'1226.5
2017-Sep-26 00:31N 38°25' E 013°15'1326.6
2017-Sep-26 00:01N 38°14' E 013°24'612.2
2017-Sep-25 23:30N 38°08' E 013°22'0 0.2
2017-Sep-25 23:00N 38°08' E 013°22'0 0.0
2017-Sep-25 22:29N 38°08' E 013°22'0 0.0
2017-Sep-25 21:59N 38°08' E 013°22'0 0.0
2017-Sep-25 21:29N 38°08' E 013°22'0 0.0
2017-Sep-25 20:59N 38°08' E 013°22'0 0.0
2017-Sep-25 20:29N 38°08' E 013°22'0 0.0
2017-Sep-25 19:58N 38°08' E 013°22'0 0.0
2017-Sep-25 19:28N 38°08' E 013°22'0 0.0
2017-Sep-25 19:01N 38°08' E 013°22'2 4.1
2017-Sep-25 18:30N 38°09' E 013°24'1020.0
2017-Sep-25 18:00N 38°16' E 013°16'12815.3
2017-Sep-25 09:38N 36°11' E 013°50'425.0
2017-Sep-25 09:30N 36°09' E 013°53'1224.8
2017-Sep-25 09:00N 36°00' E 014°04'1324.8
2017-Sep-25 08:30N 35°51' E 014°15'15 2.9
2017-Sep-25 03:14N 35°46' E 014°32'522.8
2017-Sep-25 03:00N 35°45' E 014°26'1122.0
2017-Sep-25 02:30N 35°52' E 014°15'1123.0
2017-Sep-25 02:00N 35°59' E 014°04'1222.9
2017-Sep-25 01:30N 36°08' E 013°54'13615.9
2017-Sep-24 16:56N 38°15' E 012°52'1023.0
2017-Sep-24 16:30N 38°16' E 013°05'1223.1
2017-Sep-24 16:01N 38°17' E 013°20'1019.5
2017-Sep-24 15:30N 38°08' E 013°24'2 3.5
2017-Sep-24 15:00N 38°08' E 013°22'0 0.0
2017-Sep-24 14:29N 38°08' E 013°22'0 0.0
2017-Sep-24 13:59N 38°08' E 013°22'0 0.0
2017-Sep-24 13:29N 38°08' E 013°22'0 0.0
2017-Sep-24 13:00N 38°08' E 013°22'2 3.7
2017-Sep-24 12:30N 38°09' E 013°24'1223.7
2017-Sep-24 12:01N 38°20' E 013°19'1326.0
2017-Sep-24 11:31N 38°31' E 013°10'32525.6
2017-Sep-23 22:51N 43°10' E 009°32'926.6
2017-Sep-23 22:31N 43°19' E 009°28'1326.4
2017-Sep-23 22:01N 43°31' E 009°22'1326.1
2017-Sep-23 21:31N 43°44' E 009°16'1326.0
2017-Sep-23 21:01N 43°56' E 009°10'1325.9
2017-Sep-23 20:31N 44°09' E 009°05'1325.7
2017-Sep-23 20:00N 44°20' E 008°58'80 1.8
2017-Sep-22 00:20N 43°05' E 009°34'926.9
2017-Sep-21 23:59N 43°14' E 009°31'1327.1
2017-Sep-21 23:30N 43°27' E 009°25'1326.4
2017-Sep-21 23:00N 43°39' E 009°19'1326.3
2017-Sep-21 22:30N 43°51' E 009°12'1326.3
2017-Sep-21 22:01N 44°03' E 009°05'1326.4
2017-Sep-21 21:31N 44°16' E 009°00'917.8
2017-Sep-21 21:00N 44°24' E 008°55'0 0.6
2017-Sep-21 20:29N 44°25' E 008°55'0 0.0
2017-Sep-21 19:59N 44°25' E 008°55'0 0.0
2017-Sep-21 19:28N 44°25' E 008°55'0 0.0
2017-Sep-21 18:58N 44°25' E 008°55'0 0.0
2017-Sep-21 18:25N 44°25' E 008°55'0 0.0
2017-Sep-21 18:00N 44°25' E 008°55'0 0.0
2017-Sep-21 17:30N 44°25' E 008°55'0 0.0
2017-Sep-21 17:00N 44°25' E 008°55'0 0.0
2017-Sep-21 16:31N 44°25' E 008°55'2 4.6
2017-Sep-21 16:00N 44°23' E 008°57'1021.1
2017-Sep-21 15:31N 44°13' E 009°02'1122.9
2017-Sep-21 15:01N 44°03' E 009°08'1123.0
2017-Sep-21 14:31N 43°52' E 009°14'1122.9
2017-Sep-21 14:01N 43°41' E 009°21'1122.7
2017-Sep-21 13:31N 43°31' E 009°25'1322.8
2017-Sep-21 12:56N 43°18' E 009°31'32325.8
2017-Sep-21 00:23N 38°38' E 013°04'1025.7
2017-Sep-21 00:00N 38°30' E 013°11'1326.0
2017-Sep-20 23:30N 38°19' E 013°20'1123.0
2017-Sep-20 23:01N 38°08' E 013°25'2 4.1
2017-Sep-20 22:29N 38°08' E 013°22'0 0.0
2017-Sep-20 21:59N 38°08' E 013°22'0 0.0
2017-Sep-20 21:29N 38°08' E 013°22'0 0.0
2017-Sep-20 20:58N 38°08' E 013°22'0 0.0
2017-Sep-20 20:28N 38°08' E 013°22'0 0.0
2017-Sep-20 19:58N 38°08' E 013°22'0 0.0
2017-Sep-20 19:28N 38°08' E 013°22'0 0.0
2017-Sep-20 19:00N 38°08' E 013°22'0 0.0
2017-Sep-20 18:30N 38°08' E 013°22'0 0.0
2017-Sep-20 18:00N 38°08' E 013°22'0 0.0
2017-Sep-20 17:30N 38°08' E 013°22'0 0.4
2017-Sep-20 17:01N 38°08' E 013°22'611.2
2017-Sep-20 16:30N 38°13' E 013°24'1122.1
2017-Sep-20 16:01N 38°22' E 013°17'29722.7
2017-Sep-20 02:57N 42°35' E 009°51'3126.1
2017-Sep-20 01:46N 43°03' E 009°35'725.8
2017-Sep-20 01:30N 43°10' E 009°33'1325.8
2017-Sep-20 01:01N 43°22' E 009°27'1325.7
2017-Sep-20 00:31N 43°34' E 009°21'1425.7
2017-Sep-19 23:57N 43°47' E 009°14'1425.7
2017-Sep-19 23:26N 43°60' E 009°08'1125.9
2017-Sep-19 23:01N 44°10' E 009°03'1326.0
2017-Sep-19 22:31N 44°22' E 008°57'3 4.8
2017-Sep-19 21:59N 44°25' E 008°55'0 0.0
2017-Sep-19 21:28N 44°25' E 008°55'0 0.0
2017-Sep-19 20:58N 44°25' E 008°55'0 0.0
2017-Sep-19 20:28N 44°25' E 008°55'0 0.0
2017-Sep-19 19:58N 44°25' E 008°55'0 0.0
2017-Sep-19 19:31N 44°25' E 008°55'0 0.0
2017-Sep-19 19:00N 44°25' E 008°55'0 0.0
2017-Sep-19 18:27N 44°25' E 008°55'0 0.0
2017-Sep-19 17:54N 44°25' E 008°55'0 0.0
2017-Sep-19 17:27N 44°25' E 008°55'0 0.3
2017-Sep-19 17:00N 44°24' E 008°55'713.2
2017-Sep-19 16:30N 44°19' E 008°60'1122.3
2017-Sep-19 16:00N 44°08' E 009°05'1122.2
2017-Sep-19 15:30N 43°58' E 009°10'1121.4
2017-Sep-19 15:00N 43°48' E 009°16'1224.4
2017-Sep-19 14:30N 43°37' E 009°22'1325.8
2017-Sep-19 14:00N 43°24' E 009°28'32925.6
2017-Sep-19 01:12N 38°39' E 013°03'526.0
2017-Sep-19 01:00N 38°34' E 013°07'  

Dump ship's entire track history